sensor_id;sensor_type;location;lat;lon;timestamp;P1;P2;P0
46591;PMS6003;32314;48.748;9.656;2024-03-23T00:53:13;6.33;6.33;3.33
46591;PMS6003;32314;48.748;9.656;2024-03-23T00:56:00;10.25;10.25;6.75
46591;PMS6003;32314;48.748;9.656;2024-03-23T00:58:46;8.75;8.75;6.25
46591;PMS6003;32314;48.748;9.656;2024-03-23T01:01:32;13.00;10.00;9.00
46591;PMS6003;32314;48.748;9.656;2024-03-23T01:04:17;9.00;9.00;6.75
46591;PMS6003;32314;48.748;9.656;2024-03-23T01:07:03;11.75;11.75;8.50
46591;PMS6003;32314;48.748;9.656;2024-03-23T01:09:49;14.00;9.00;6.00
46591;PMS6003;32314;48.748;9.656;2024-03-23T01:12:35;3.50;2.50;2.00
46591;PMS6003;32314;48.748;9.656;2024-03-23T01:15:21;9.75;8.00;7.00
46591;PMS6003;32314;48.748;9.656;2024-03-23T01:18:07;9.00;6.50;6.00
46591;PMS6003;32314;48.748;9.656;2024-03-23T01:20:53;12.00;9.75;8.50
46591;PMS6003;32314;48.748;9.656;2024-03-23T01:23:39;9.25;6.25;5.00
46591;PMS6003;32314;48.748;9.656;2024-03-23T01:26:24;8.00;7.00;6.00
46591;PMS6003;32314;48.748;9.656;2024-03-23T01:29:10;4.00;4.00;3.00
46591;PMS6003;32314;48.748;9.656;2024-03-23T01:31:56;7.00;6.00;4.50
46591;PMS6003;32314;48.748;9.656;2024-03-23T01:34:42;6.00;6.00;4.00
46591;PMS6003;32314;48.748;9.656;2024-03-23T01:37:28;1.00;1.00;0.00
46591;PMS6003;32314;48.748;9.656;2024-03-23T01:40:15;6.75;6.25;4.00
46591;PMS6003;32314;48.748;9.656;2024-03-23T01:43:03;4.00;4.00;3.50
46591;PMS6003;32314;48.748;9.656;2024-03-23T01:45:50;7.25;7.25;6.50
46591;PMS6003;32314;48.748;9.656;2024-03-23T01:48:38;3.50;3.00;1.00
46591;PMS6003;32314;48.748;9.656;2024-03-23T01:51:24;13.00;7.00;4.50
46591;PMS6003;32314;48.748;9.656;2024-03-23T01:54:10;6.33;6.33;6.00
46591;PMS6003;32314;48.748;9.656;2024-03-23T01:56:55;6.50;6.50;5.50
46591;PMS6003;32314;48.748;9.656;2024-03-23T01:59:41;9.50;7.00;6.00
46591;PMS6003;32314;48.748;9.656;2024-03-23T02:02:29;5.50;5.50;4.00
46591;PMS6003;32314;48.748;9.656;2024-03-23T02:05:15;6.50;6.50;5.50
46591;PMS6003;32314;48.748;9.656;2024-03-23T02:08:01;0.00;0.00;0.00
46591;PMS6003;32314;48.748;9.656;2024-03-23T02:10:47;9.50;7.00;4.00
46591;PMS6003;32314;48.748;9.656;2024-03-23T02:13:35;9.00;4.00;4.00
46591;PMS6003;32314;48.748;9.656;2024-03-23T02:16:20;12.50;9.00;6.00
46591;PMS6003;32314;48.748;9.656;2024-03-23T02:19:06;12.00;12.00;7.00
46591;PMS6003;32314;48.748;9.656;2024-03-23T02:21:52;12.50;9.50;6.75
46591;PMS6003;32314;48.748;9.656;2024-03-23T02:24:38;13.50;12.00;9.25
46591;PMS6003;32314;48.748;9.656;2024-03-23T02:27:24;16.00;13.00;8.00
46591;PMS6003;32314;48.748;9.656;2024-03-23T02:30:10;15.75;15.75;6.50
46591;PMS6003;32314;48.748;9.656;2024-03-23T02:32:56;11.25;8.75;7.50
46591;PMS6003;32314;48.748;9.656;2024-03-23T02:35:42;12.25;12.25;9.00
46591;PMS6003;32314;48.748;9.656;2024-03-23T02:38:28;7.50;7.50;6.00
46591;PMS6003;32314;48.748;9.656;2024-03-23T02:41:14;6.25;6.25;5.00
46591;PMS6003;32314;48.748;9.656;2024-03-23T02:44:00;8.00;7.50;6.00
46591;PMS6003;32314;48.748;9.656;2024-03-23T02:46:46;10.75;9.75;5.50
46591;PMS6003;32314;48.748;9.656;2024-03-23T02:49:32;12.50;10.50;7.00
46591;PMS6003;32314;48.748;9.656;2024-03-23T02:52:18;15.25;10.00;7.00
46591;PMS6003;32314;48.748;9.656;2024-03-23T02:55:04;9.75;6.75;6.00
46591;PMS6003;32314;48.748;9.656;2024-03-23T02:57:50;10.50;9.00;7.00
46591;PMS6003;32314;48.748;9.656;2024-03-23T03:00:36;10.00;9.00;6.00
46591;PMS6003;32314;48.748;9.656;2024-03-23T03:03:22;9.75;8.00;6.75
46591;PMS6003;32314;48.748;9.656;2024-03-23T03:06:07;6.25;6.25;6.00
46591;PMS6003;32314;48.748;9.656;2024-03-23T03:08:53;17.00;9.00;4.50
46591;PMS6003;32314;48.748;9.656;2024-03-23T03:11:39;4.00;0.00;0.00
46591;PMS6003;32314;48.748;9.656;2024-03-23T03:14:25;1.00;1.00;1.00
46591;PMS6003;32314;48.748;9.656;2024-03-23T03:17:11;9.75;6.00;4.00
46591;PMS6003;32314;48.748;9.656;2024-03-23T03:19:57;4.00;4.00;3.75
46591;PMS6003;32314;48.748;9.656;2024-03-23T03:22:43;6.00;6.00;4.00
46591;PMS6003;32314;48.748;9.656;2024-03-23T03:25:29;4.00;4.00;3.00
46591;PMS6003;32314;48.748;9.656;2024-03-23T03:28:15;5.50;5.50;3.25
46591;PMS6003;32314;48.748;9.656;2024-03-23T03:31:00;7.00;7.00;6.00
46591;PMS6003;32314;48.748;9.656;2024-03-23T03:33:46;11.00;6.50;4.00
46591;PMS6003;32314;48.748;9.656;2024-03-23T03:36:32;8.33;6.00;4.00
46591;PMS6003;32314;48.748;9.656;2024-03-23T03:39:18;7.00;7.00;6.00
46591;PMS6003;32314;48.748;9.656;2024-03-23T03:42:03;9.00;6.67;6.00
46591;PMS6003;32314;48.748;9.656;2024-03-23T03:44:52;12.00;4.00;3.33
46591;PMS6003;32314;48.748;9.656;2024-03-23T03:47:39;9.00;4.00;3.67
46591;PMS6003;32314;48.748;9.656;2024-03-23T03:50:25;6.00;6.00;4.00
46591;PMS6003;32314;48.748;9.656;2024-03-23T03:53:10;5.33;5.33;4.00
46591;PMS6003;32314;48.748;9.656;2024-03-23T03:56:00;6.50;6.50;6.25
46591;PMS6003;32314;48.748;9.656;2024-03-23T03:58:46;5.00;5.00;3.50
46591;PMS6003;32314;48.748;9.656;2024-03-23T04:01:32;4.67;4.67;4.67
46591;PMS6003;32314;48.748;9.656;2024-03-23T04:04:17;6.00;6.00;4.00
46591;PMS6003;32314;48.748;9.656;2024-03-23T04:07:03;6.67;6.67;6.00
46591;PMS6003;32314;48.748;9.656;2024-03-23T04:09:50;3.33;3.33;3.33
46591;PMS6003;32314;48.748;9.656;2024-03-23T04:12:36;6.67;6.67;4.67
46591;PMS6003;32314;48.748;9.656;2024-03-23T04:15:22;4.67;3.00;3.00
46591;PMS6003;32314;48.748;9.656;2024-03-23T04:18:08;7.67;7.67;4.00
46591;PMS6003;32314;48.748;9.656;2024-03-23T04:20:54;5.33;5.33;3.33
46591;PMS6003;32314;48.748;9.656;2024-03-23T04:23:39;7.00;6.00;4.67
46591;PMS6003;32314;48.748;9.656;2024-03-23T04:26:26;8.00;6.67;4.00
46591;PMS6003;32314;48.748;9.656;2024-03-23T04:29:11;4.00;4.00;4.00
46591;PMS6003;32314;48.748;9.656;2024-03-23T04:31:58;7.00;7.00;4.00
46591;PMS6003;32314;48.748;9.656;2024-03-23T04:34:44;25.75;20.75;19.75
46591;PMS6003;32314;48.748;9.656;2024-03-23T04:37:30;41.75;41.75;34.75
46591;PMS6003;32314;48.748;9.656;2024-03-23T04:40:17;34.25;31.50;29.75
46591;PMS6003;32314;48.748;9.656;2024-03-23T04:43:02;33.00;28.75;26.50
46591;PMS6003;32314;48.748;9.656;2024-03-23T04:45:49;26.50;26.50;24.75
46591;PMS6003;32314;48.748;9.656;2024-03-23T04:48:35;41.50;38.50;33.50
46591;PMS6003;32314;48.748;9.656;2024-03-23T04:51:24;51.75;47.50;40.25
46591;PMS6003;32314;48.748;9.656;2024-03-23T04:54:10;55.00;50.25;42.50
46591;PMS6003;32314;48.748;9.656;2024-03-23T04:56:56;51.00;46.50;39.25
46591;PMS6003;32314;48.748;9.656;2024-03-23T04:59:41;32.25;32.25;28.75
46591;PMS6003;32314;48.748;9.656;2024-03-23T05:02:27;6.33;6.00;5.33
46591;PMS6003;32314;48.748;9.656;2024-03-23T05:05:13;6.67;6.67;6.00
46591;PMS6003;32314;48.748;9.656;2024-03-23T05:07:59;9.33;9.00;6.00
46591;PMS6003;32314;48.748;9.656;2024-03-23T05:10:45;8.00;7.00;5.33
46591;PMS6003;32314;48.748;9.656;2024-03-23T05:13:31;10.00;7.00;6.00
46591;PMS6003;32314;48.748;9.656;2024-03-23T05:16:17;7.67;7.67;6.33
46591;PMS6003;32314;48.748;9.656;2024-03-23T05:19:03;3.67;3.67;3.00
46591;PMS6003;32314;48.748;9.656;2024-03-23T05:21:49;7.00;6.00;4.00
46591;PMS6003;32314;48.748;9.656;2024-03-23T05:24:35;4.00;4.00;3.00
46591;PMS6003;32314;48.748;9.656;2024-03-23T05:27:21;4.00;3.00;1.00
46591;PMS6003;32314;48.748;9.656;2024-03-23T05:30:06;52.75;48.75;41.50
46591;PMS6003;32314;48.748;9.656;2024-03-23T05:32:54;8.33;6.33;4.00
46591;PMS6003;32314;48.748;9.656;2024-03-23T05:35:40;16.67;12.67;7.67
46591;PMS6003;32314;48.748;9.656;2024-03-23T05:38:26;20.67;17.00;10.67
46591;PMS6003;32314;48.748;9.656;2024-03-23T05:41:13;15.67;15.67;10.00
46591;PMS6003;32314;48.748;9.656;2024-03-23T05:43:59;12.00;12.00;9.00
46591;PMS6003;32314;48.748;9.656;2024-03-23T05:46:45;12.67;12.67;9.00
46591;PMS6003;32314;48.748;9.656;2024-03-23T05:49:33;15.00;15.00;10.00
46591;PMS6003;32314;48.748;9.656;2024-03-23T05:52:19;9.00;8.33;5.33
46591;PMS6003;32314;48.748;9.656;2024-03-23T05:55:06;9.00;7.00;3.00
46591;PMS6003;32314;48.748;9.656;2024-03-23T05:57:52;10.00;10.00;9.00
46591;PMS6003;32314;48.748;9.656;2024-03-23T06:00:38;14.67;12.67;9.67
46591;PMS6003;32314;48.748;9.656;2024-03-23T06:03:24;13.67;12.00;7.00
46591;PMS6003;32314;48.748;9.656;2024-03-23T06:06:10;12.67;12.67;7.00
46591;PMS6003;32314;48.748;9.656;2024-03-23T06:08:58;14.67;12.33;9.00
46591;PMS6003;32314;48.748;9.656;2024-03-23T06:11:43;13.00;13.00;9.00
46591;PMS6003;32314;48.748;9.656;2024-03-23T06:14:29;13.00;9.67;7.00
46591;PMS6003;32314;48.748;9.656;2024-03-23T06:17:15;10.00;10.00;7.67
46591;PMS6003;32314;48.748;9.656;2024-03-23T06:20:01;12.67;10.00;7.00
46591;PMS6003;32314;48.748;9.656;2024-03-23T06:22:47;11.33;11.33;8.33
46591;PMS6003;32314;48.748;9.656;2024-03-23T06:25:33;9.00;6.67;6.00
46591;PMS6003;32314;48.748;9.656;2024-03-23T06:28:19;9.67;9.67;8.33
46591;PMS6003;32314;48.748;9.656;2024-03-23T06:31:08;7.00;5.33;3.67
46591;PMS6003;32314;48.748;9.656;2024-03-23T06:33:55;7.00;4.67;3.67
46591;PMS6003;32314;48.748;9.656;2024-03-23T06:36:41;2.33;2.33;1.00
46591;PMS6003;32314;48.748;9.656;2024-03-23T06:39:27;1.00;1.00;1.00
46591;PMS6003;32314;48.748;9.656;2024-03-23T06:42:12;1.67;1.67;1.00
46591;PMS6003;32314;48.748;9.656;2024-03-23T06:44:58;22.33;19.33;13.67
46591;PMS6003;32314;48.748;9.656;2024-03-23T06:47:44;7.00;6.00;4.00
46591;PMS6003;32314;48.748;9.656;2024-03-23T06:50:30;0.00;0.00;0.00
46591;PMS6003;32314;48.748;9.656;2024-03-23T06:53:15;4.00;4.00;4.00
46591;PMS6003;32314;48.748;9.656;2024-03-23T06:56:01;1.00;1.00;0.67
46591;PMS6003;32314;48.748;9.656;2024-03-23T06:58:47;1.00;1.00;1.00
46591;PMS6003;32314;48.748;9.656;2024-03-23T07:01:33;1.00;1.00;1.00
46591;PMS6003;32314;48.748;9.656;2024-03-23T07:04:19;1.00;1.00;1.00
46591;PMS6003;32314;48.748;9.656;2024-03-23T07:07:05;0.00;0.00;0.00
46591;PMS6003;32314;48.748;9.656;2024-03-23T07:09:51;0.00;0.00;0.00
46591;PMS6003;32314;48.748;9.656;2024-03-23T07:12:38;1.00;1.00;0.00
46591;PMS6003;32314;48.748;9.656;2024-03-23T07:15:24;0.67;0.00;0.00
46591;PMS6003;32314;48.748;9.656;2024-03-23T07:18:09;0.00;0.00;0.00
46591;PMS6003;32314;48.748;9.656;2024-03-23T07:20:56;1.00;1.00;1.00
46591;PMS6003;32314;48.748;9.656;2024-03-23T07:23:42;0.00;0.00;0.00
46591;PMS6003;32314;48.748;9.656;2024-03-23T07:26:31;0.00;0.00;0.00
46591;PMS6003;32314;48.748;9.656;2024-03-23T07:29:17;0.00;0.00;0.00
46591;PMS6003;32314;48.748;9.656;2024-03-23T07:32:03;0.00;0.00;0.00
46591;PMS6003;32314;48.748;9.656;2024-03-23T07:34:49;0.00;0.00;0.00
46591;PMS6003;32314;48.748;9.656;2024-03-23T07:37:34;0.00;0.00;0.00
46591;PMS6003;32314;48.748;9.656;2024-03-23T07:40:20;0.00;0.00;0.00
46591;PMS6003;32314;48.748;9.656;2024-03-23T07:43:06;0.00;0.00;0.00
46591;PMS6003;32314;48.748;9.656;2024-03-23T07:45:52;0.00;0.00;0.00
46591;PMS6003;32314;48.748;9.656;2024-03-23T07:48:38;0.00;0.00;0.00
46591;PMS6003;32314;48.748;9.656;2024-03-23T07:51:25;1.00;1.00;0.00
46591;PMS6003;32314;48.748;9.656;2024-03-23T07:54:11;0.00;0.00;0.00
46591;PMS6003;32314;48.748;9.656;2024-03-23T07:56:57;1.00;1.00;0.67
46591;PMS6003;32314;48.748;9.656;2024-03-23T07:59:43;0.00;0.00;0.00
46591;PMS6003;32314;48.748;9.656;2024-03-23T08:02:28;0.00;0.00;0.00
46591;PMS6003;32314;48.748;9.656;2024-03-23T08:05:14;0.00;0.00;0.00
46591;PMS6003;32314;48.748;9.656;2024-03-23T08:08:00;0.00;0.00;0.00
46591;PMS6003;32314;48.748;9.656;2024-03-23T08:10:52;0.33;0.33;0.33
46591;PMS6003;32314;48.748;9.656;2024-03-23T08:13:39;0.00;0.00;0.00
46591;PMS6003;32314;48.748;9.656;2024-03-23T08:16:25;0.00;0.00;0.00
46591;PMS6003;32314;48.748;9.656;2024-03-23T08:19:11;0.00;0.00;0.00
46591;PMS6003;32314;48.748;9.656;2024-03-23T08:21:57;0.00;0.00;0.00
46591;PMS6003;32314;48.748;9.656;2024-03-23T08:24:43;0.00;0.00;0.00
46591;PMS6003;32314;48.748;9.656;2024-03-23T08:27:29;1.00;0.00;0.00
46591;PMS6003;32314;48.748;9.656;2024-03-23T08:30:15;0.00;0.00;0.00
46591;PMS6003;32314;48.748;9.656;2024-03-23T08:33:00;0.00;0.00;0.00
46591;PMS6003;32314;48.748;9.656;2024-03-23T08:35:56;0.00;0.00;0.00
46591;PMS6003;32314;48.748;9.656;2024-03-23T08:38:45;0.00;0.00;0.00
46591;PMS6003;32314;48.748;9.656;2024-03-23T08:41:31;0.00;0.00;0.00
46591;PMS6003;32314;48.748;9.656;2024-03-23T08:44:17;0.00;0.00;0.00
46591;PMS6003;32314;48.748;9.656;2024-03-23T08:47:03;0.00;0.00;0.00
46591;PMS6003;32314;48.748;9.656;2024-03-23T08:49:48;0.00;0.00;0.00
46591;PMS6003;32314;48.748;9.656;2024-03-23T08:52:35;0.00;0.00;0.00
46591;PMS6003;32314;48.748;9.656;2024-03-23T08:55:20;0.00;0.00;0.00
46591;PMS6003;32314;48.748;9.656;2024-03-23T08:58:06;0.00;0.00;0.00
46591;PMS6003;32314;48.748;9.656;2024-03-23T09:00:54;0.00;0.00;0.00
46591;PMS6003;32314;48.748;9.656;2024-03-23T09:03:41;0.00;0.00;0.00
46591;PMS6003;32314;48.748;9.656;2024-03-23T09:06:27;0.00;0.00;0.00
46591;PMS6003;32314;48.748;9.656;2024-03-23T09:09:13;0.00;0.00;0.00
46591;PMS6003;32314;48.748;9.656;2024-03-23T09:11:59;0.00;0.00;0.00
46591;PMS6003;32314;48.748;9.656;2024-03-23T09:14:45;0.00;0.00;0.00
46591;PMS6003;32314;48.748;9.656;2024-03-23T09:17:30;0.00;0.00;0.00
46591;PMS6003;32314;48.748;9.656;2024-03-23T09:20:16;0.00;0.00;0.00
46591;PMS6003;32314;48.748;9.656;2024-03-23T09:23:02;0.00;0.00;0.00
46591;PMS6003;32314;48.748;9.656;2024-03-23T09:25:48;0.00;0.00;0.00
46591;PMS6003;32314;48.748;9.656;2024-03-23T09:28:34;0.00;0.00;0.00
46591;PMS6003;32314;48.748;9.656;2024-03-23T09:31:20;0.00;0.00;0.00
46591;PMS6003;32314;48.748;9.656;2024-03-23T09:34:06;0.00;0.00;0.00
46591;PMS6003;32314;48.748;9.656;2024-03-23T09:36:51;0.00;0.00;0.00
46591;PMS6003;32314;48.748;9.656;2024-03-23T09:39:37;3.00;0.00;0.00
46591;PMS6003;32314;48.748;9.656;2024-03-23T09:42:23;0.00;0.00;0.00
46591;PMS6003;32314;48.748;9.656;2024-03-23T09:45:11;0.00;0.00;0.00
46591;PMS6003;32314;48.748;9.656;2024-03-23T09:48:03;0.00;0.00;0.00
46591;PMS6003;32314;48.748;9.656;2024-03-23T09:50:49;0.67;0.67;0.00
46591;PMS6003;32314;48.748;9.656;2024-03-23T09:53:34;0.67;0.67;0.00
46591;PMS6003;32314;48.748;9.656;2024-03-23T09:56:21;0.00;0.00;0.00
46591;PMS6003;32314;48.748;9.656;2024-03-23T09:59:07;0.00;0.00;0.00
46591;PMS6003;32314;48.748;9.656;2024-03-23T10:01:53;0.00;0.00;0.00
46591;PMS6003;32314;48.748;9.656;2024-03-23T10:04:39;0.33;0.33;0.33
46591;PMS6003;32314;48.748;9.656;2024-03-23T10:07:26;0.00;0.00;0.00
46591;PMS6003;32314;48.748;9.656;2024-03-23T10:10:15;0.33;0.33;0.33
46591;PMS6003;32314;48.748;9.656;2024-03-23T10:13:01;0.00;0.00;0.00
46591;PMS6003;32314;48.748;9.656;2024-03-23T10:15:48;0.00;0.00;0.00
46591;PMS6003;32314;48.748;9.656;2024-03-23T10:18:40;1.00;1.00;0.00
46591;PMS6003;32314;48.748;9.656;2024-03-23T10:21:26;1.00;0.00;0.00
46591;PMS6003;32314;48.748;9.656;2024-03-23T10:24:12;0.00;0.00;0.00
46591;PMS6003;32314;48.748;9.656;2024-03-23T10:26:58;0.50;0.50;0.00
46591;PMS6003;32314;48.748;9.656;2024-03-23T10:29:45;0.50;0.50;0.00
46591;PMS6003;32314;48.748;9.656;2024-03-23T10:32:31;0.25;0.00;0.00
46591;PMS6003;32314;48.748;9.656;2024-03-23T10:35:17;1.00;1.00;1.00
46591;PMS6003;32314;48.748;9.656;2024-03-23T10:38:05;1.00;1.00;0.50
46591;PMS6003;32314;48.748;9.656;2024-03-23T10:40:52;0.00;0.00;0.00
46591;PMS6003;32314;48.748;9.656;2024-03-23T10:43:39;4.50;0.50;0.50
46591;PMS6003;32314;48.748;9.656;2024-03-23T10:46:25;1.00;1.00;1.00
46591;PMS6003;32314;48.748;9.656;2024-03-23T10:49:11;0.25;0.25;0.00
46591;PMS6003;32314;48.748;9.656;2024-03-23T10:52:01;0.00;0.00;0.00
46591;PMS6003;32314;48.748;9.656;2024-03-23T10:54:48;0.50;0.50;0.00
46591;PMS6003;32314;48.748;9.656;2024-03-23T10:57:38;3.00;1.50;1.00
46591;PMS6003;32314;48.748;9.656;2024-03-23T11:00:30;0.00;0.00;0.00
46591;PMS6003;32314;48.748;9.656;2024-03-23T11:06:33;0.75;0.75;0.25
46591;PMS6003;32314;48.748;9.656;2024-03-23T11:09:53;1.50;1.00;1.00
46591;PMS6003;32314;48.748;9.656;2024-03-23T11:12:32;0.75;0.75;0.00
46591;PMS6003;32314;48.748;9.656;2024-03-23T11:15:18;6.50;2.00;1.00
46591;PMS6003;32314;48.748;9.656;2024-03-23T11:18:05;1.00;1.00;1.00
46591;PMS6003;32314;48.748;9.656;2024-03-23T11:20:54;0.00;0.00;0.00
46591;PMS6003;32314;48.748;9.656;2024-03-23T11:23:40;3.00;0.50;0.50
46591;PMS6003;32314;48.748;9.656;2024-03-23T11:26:25;4.50;3.00;1.50
46591;PMS6003;32314;48.748;9.656;2024-03-23T11:29:12;3.25;1.00;1.00
46591;PMS6003;32314;48.748;9.656;2024-03-23T11:31:59;1.00;1.00;0.00
46591;PMS6003;32314;48.748;9.656;2024-03-23T11:34:47;1.00;1.00;1.00
46591;PMS6003;32314;48.748;9.656;2024-03-23T11:37:33;1.00;1.00;1.00
46591;PMS6003;32314;48.748;9.656;2024-03-23T11:40:19;4.33;3.00;1.00
46591;PMS6003;32314;48.748;9.656;2024-03-23T11:46:01;1.00;1.00;0.33
46591;PMS6003;32314;48.748;9.656;2024-03-23T11:48:49;1.00;1.00;1.00
46591;PMS6003;32314;48.748;9.656;2024-03-23T11:51:36;6.00;1.00;1.00
46591;PMS6003;32314;48.748;9.656;2024-03-23T11:54:23;1.67;1.67;1.00
46591;PMS6003;32314;48.748;9.656;2024-03-23T11:57:09;1.00;1.00;0.00
46591;PMS6003;32314;48.748;9.656;2024-03-23T11:59:55;0.00;0.00;0.00
46591;PMS6003;32314;48.748;9.656;2024-03-23T12:02:41;1.00;1.00;1.00
46591;PMS6003;32314;48.748;9.656;2024-03-23T12:05:26;0.00;0.00;0.00
46591;PMS6003;32314;48.748;9.656;2024-03-23T12:11:15;0.00;0.00;0.00
46591;PMS6003;32314;48.748;9.656;2024-03-23T12:14:02;0.33;0.33;0.00
46591;PMS6003;32314;48.748;9.656;2024-03-23T12:16:47;0.00;0.00;0.00
46591;PMS6003;32314;48.748;9.656;2024-03-23T12:19:33;0.00;0.00;0.00
46591;PMS6003;32314;48.748;9.656;2024-03-23T12:22:23;0.00;0.00;0.00
46591;PMS6003;32314;48.748;9.656;2024-03-23T12:25:09;0.00;0.00;0.00
46591;PMS6003;32314;48.748;9.656;2024-03-23T12:27:57;1.00;1.00;0.67
46591;PMS6003;32314;48.748;9.656;2024-03-23T12:30:44;0.67;0.67;0.67
46591;PMS6003;32314;48.748;9.656;2024-03-23T12:33:30;0.67;0.67;0.00
46591;PMS6003;32314;48.748;9.656;2024-03-23T12:36:15;3.00;1.00;1.00
46591;PMS6003;32314;48.748;9.656;2024-03-23T12:39:01;0.33;0.33;0.00
46591;PMS6003;32314;48.748;9.656;2024-03-23T12:41:47;0.67;0.67;0.33
46591;PMS6003;32314;48.748;9.656;2024-03-23T12:44:34;0.33;0.33;0.00
46591;PMS6003;32314;48.748;9.656;2024-03-23T12:47:20;1.00;0.00;0.00
46591;PMS6003;32314;48.748;9.656;2024-03-23T12:50:06;0.00;0.00;0.00
46591;PMS6003;32314;48.748;9.656;2024-03-23T12:52:52;1.67;0.00;0.00
46591;PMS6003;32314;48.748;9.656;2024-03-23T12:55:38;3.00;0.00;0.00
46591;PMS6003;32314;48.748;9.656;2024-03-23T12:58:23;0.00;0.00;0.00
46591;PMS6003;32314;48.748;9.656;2024-03-23T13:01:09;0.00;0.00;0.00
46591;PMS6003;32314;48.748;9.656;2024-03-23T13:03:55;0.00;0.00;0.00
46591;PMS6003;32314;48.748;9.656;2024-03-23T13:06:41;0.00;0.00;0.00
46591;PMS6003;32314;48.748;9.656;2024-03-23T13:09:27;0.00;0.00;0.00
46591;PMS6003;32314;48.748;9.656;2024-03-23T13:12:13;0.00;0.00;0.00
46591;PMS6003;32314;48.748;9.656;2024-03-23T13:14:59;0.00;0.00;0.00
46591;PMS6003;32314;48.748;9.656;2024-03-23T13:17:45;3.00;0.00;0.00
46591;PMS6003;32314;48.748;9.656;2024-03-23T13:20:31;0.00;0.00;0.00
46591;PMS6003;32314;48.748;9.656;2024-03-23T13:23:17;0.67;0.00;0.00
46591;PMS6003;32314;48.748;9.656;2024-03-23T13:26:03;0.00;0.00;0.00
46591;PMS6003;32314;48.748;9.656;2024-03-23T13:28:49;1.00;1.00;0.33
46591;PMS6003;32314;48.748;9.656;2024-03-23T13:31:34;0.00;0.00;0.00
46591;PMS6003;32314;48.748;9.656;2024-03-23T13:34:20;0.00;0.00;0.00
46591;PMS6003;32314;48.748;9.656;2024-03-23T13:37:06;0.00;0.00;0.00
46591;PMS6003;32314;48.748;9.656;2024-03-23T13:39:52;1.00;0.00;0.00
46591;PMS6003;32314;48.748;9.656;2024-03-23T13:42:38;0.00;0.00;0.00
46591;PMS6003;32314;48.748;9.656;2024-03-23T13:45:24;0.00;0.00;0.00
46591;PMS6003;32314;48.748;9.656;2024-03-23T13:48:10;3.67;0.00;0.00
46591;PMS6003;32314;48.748;9.656;2024-03-23T13:50:59;1.00;0.00;0.00
46591;PMS6003;32314;48.748;9.656;2024-03-23T13:53:45;4.00;1.00;0.00
46591;PMS6003;32314;48.748;9.656;2024-03-23T13:56:31;1.00;1.00;0.00
46591;PMS6003;32314;48.748;9.656;2024-03-23T13:59:17;1.00;0.00;0.00
46591;PMS6003;32314;48.748;9.656;2024-03-23T14:02:03;1.00;1.00;1.00
46591;PMS6003;32314;48.748;9.656;2024-03-23T14:04:49;2.25;0.00;0.00
46591;PMS6003;32314;48.748;9.656;2024-03-23T14:07:34;0.00;0.00;0.00
46591;PMS6003;32314;48.748;9.656;2024-03-23T14:10:20;0.00;0.00;0.00
46591;PMS6003;32314;48.748;9.656;2024-03-23T14:13:06;2.50;0.50;0.50
46591;PMS6003;32314;48.748;9.656;2024-03-23T14:15:53;3.00;2.00;1.50
46591;PMS6003;32314;48.748;9.656;2024-03-23T14:18:39;0.75;0.00;0.00
46591;PMS6003;32314;48.748;9.656;2024-03-23T14:21:25;0.00;0.00;0.00
46591;PMS6003;32314;48.748;9.656;2024-03-23T14:24:10;0.00;0.00;0.00
46591;PMS6003;32314;48.748;9.656;2024-03-23T14:26:56;2.50;2.50;1.00
46591;PMS6003;32314;48.748;9.656;2024-03-23T14:29:42;3.00;3.00;1.00
46591;PMS6003;32314;48.748;9.656;2024-03-23T14:32:31;0.75;0.75;0.00
46591;PMS6003;32314;48.748;9.656;2024-03-23T14:35:19;0.00;0.00;0.00
46591;PMS6003;32314;48.748;9.656;2024-03-23T14:38:05;0.00;0.00;0.00
46591;PMS6003;32314;48.748;9.656;2024-03-23T14:40:51;0.00;0.00;0.00
46591;PMS6003;32314;48.748;9.656;2024-03-23T14:43:38;0.00;0.00;0.00
46591;PMS6003;32314;48.748;9.656;2024-03-23T14:46:24;0.00;0.00;0.00
46591;PMS6003;32314;48.748;9.656;2024-03-23T14:49:14;0.00;0.00;0.00
46591;PMS6003;32314;48.748;9.656;2024-03-23T14:52:02;1.67;0.00;0.00
46591;PMS6003;32314;48.748;9.656;2024-03-23T14:54:48;0.00;0.00;0.00
46591;PMS6003;32314;48.748;9.656;2024-03-23T14:57:34;0.00;0.00;0.00
46591;PMS6003;32314;48.748;9.656;2024-03-23T15:00:20;0.00;0.00;0.00
46591;PMS6003;32314;48.748;9.656;2024-03-23T15:03:06;0.00;0.00;0.00
46591;PMS6003;32314;48.748;9.656;2024-03-23T15:05:55;0.33;0.00;0.00
46591;PMS6003;32314;48.748;9.656;2024-03-23T15:08:42;0.00;0.00;0.00
46591;PMS6003;32314;48.748;9.656;2024-03-23T15:11:27;0.00;0.00;0.00
46591;PMS6003;32314;48.748;9.656;2024-03-23T15:14:13;0.00;0.00;0.00
46591;PMS6003;32314;48.748;9.656;2024-03-23T15:16:59;0.00;0.00;0.00
46591;PMS6003;32314;48.748;9.656;2024-03-23T15:19:45;1.00;0.00;0.00
46591;PMS6003;32314;48.748;9.656;2024-03-23T15:22:30;0.00;0.00;0.00
46591;PMS6003;32314;48.748;9.656;2024-03-23T15:25:16;0.00;0.00;0.00
46591;PMS6003;32314;48.748;9.656;2024-03-23T15:28:03;1.00;0.00;0.00
46591;PMS6003;32314;48.748;9.656;2024-03-23T15:30:49;0.00;0.00;0.00
46591;PMS6003;32314;48.748;9.656;2024-03-23T15:33:35;0.00;0.00;0.00
46591;PMS6003;32314;48.748;9.656;2024-03-23T15:36:21;0.00;0.00;0.00
46591;PMS6003;32314;48.748;9.656;2024-03-23T15:39:07;0.00;0.00;0.00
46591;PMS6003;32314;48.748;9.656;2024-03-23T15:41:53;1.00;0.00;0.00
46591;PMS6003;32314;48.748;9.656;2024-03-23T15:44:39;0.00;0.00;0.00
46591;PMS6003;32314;48.748;9.656;2024-03-23T15:47:25;0.00;0.00;0.00
46591;PMS6003;32314;48.748;9.656;2024-03-23T15:50:11;0.00;0.00;0.00
46591;PMS6003;32314;48.748;9.656;2024-03-23T15:52:57;0.00;0.00;0.00
46591;PMS6003;32314;48.748;9.656;2024-03-23T15:55:43;0.00;0.00;0.00
46591;PMS6003;32314;48.748;9.656;2024-03-23T15:58:32;0.00;0.00;0.00
46591;PMS6003;32314;48.748;9.656;2024-03-23T16:01:18;0.00;0.00;0.00
46591;PMS6003;32314;48.748;9.656;2024-03-23T16:04:04;3.00;0.00;0.00
46591;PMS6003;32314;48.748;9.656;2024-03-23T16:06:50;0.00;0.00;0.00
46591;PMS6003;32314;48.748;9.656;2024-03-23T16:09:35;0.00;0.00;0.00
46591;PMS6003;32314;48.748;9.656;2024-03-23T16:12:22;0.00;0.00;0.00
46591;PMS6003;32314;48.748;9.656;2024-03-23T16:15:08;4.00;1.67;1.00
46591;PMS6003;32314;48.748;9.656;2024-03-23T16:17:54;1.00;1.00;1.00
46591;PMS6003;32314;48.748;9.656;2024-03-23T16:20:40;2.33;1.00;0.67
46591;PMS6003;32314;48.748;9.656;2024-03-23T16:23:26;11.33;9.67;7.00
46591;PMS6003;32314;48.748;9.656;2024-03-23T16:26:12;15.67;12.33;9.67
46591;PMS6003;32314;48.748;9.656;2024-03-23T16:28:59;0.00;0.00;0.00
46591;PMS6003;32314;48.748;9.656;2024-03-23T16:31:45;0.00;0.00;0.00
46591;PMS6003;32314;48.748;9.656;2024-03-23T16:34:31;1.00;1.00;1.00
46591;PMS6003;32314;48.748;9.656;2024-03-23T16:37:16;5.67;3.67;2.33
46591;PMS6003;32314;48.748;9.656;2024-03-23T16:40:02;0.00;0.00;0.00
46591;PMS6003;32314;48.748;9.656;2024-03-23T16:42:49;1.00;1.00;0.33
46591;PMS6003;32314;48.748;9.656;2024-03-23T16:45:35;0.00;0.00;0.00
46591;PMS6003;32314;48.748;9.656;2024-03-23T16:48:21;0.67;0.67;0.00
46591;PMS6003;32314;48.748;9.656;2024-03-23T16:51:08;1.00;1.00;1.00
46591;PMS6003;32314;48.748;9.656;2024-03-23T16:53:54;0.67;0.67;0.33
46591;PMS6003;32314;48.748;9.656;2024-03-23T16:56:42;0.00;0.00;0.00
46591;PMS6003;32314;48.748;9.656;2024-03-23T16:59:28;2.00;0.00;0.00
46591;PMS6003;32314;48.748;9.656;2024-03-23T17:02:14;0.00;0.00;0.00
46591;PMS6003;32314;48.748;9.656;2024-03-23T17:04:59;0.00;0.00;0.00
46591;PMS6003;32314;48.748;9.656;2024-03-23T17:07:45;0.00;0.00;0.00
46591;PMS6003;32314;48.748;9.656;2024-03-23T17:10:34;0.00;0.00;0.00